IGO1996 VIDP-VILH
Flight info
| Callsign | IGO1996 |
|---|---|
| Flight time | 0h 58m |
| Altitude | 35000 |
| Route | SP W39 LELAX DCT 3319N07802E/N0434F340 DCT 340000N0773953E 340504N0773438E 340754N0773442E 340918N0773315E 341005N0773124E 340959N0772836E 340830N0772736E DCT 340712N0772941E |
| Aircraft | A320/M-SDE3FGHIRWY/LB1 |
Departure
| Time | 2026-05-08 05:52 |
|---|---|
| Airport | Indira Gandhi International Airport (VIDP) |
Arrival
| Time | 2026-05-08 06:51 |
|---|---|
| Airport | Leh Kushok Bakula Rimpochee Airport (VILH) |
| Time | Latitude | Longitude | Altitude | Speed | Heading |
|---|---|---|---|---|---|
| 2026-05-08 05:43 | 28.55783 | 77.08296 | 773 ft | 0 kts | 105° |
| 2026-05-08 05:44 | 28.55784 | 77.08294 | 773 ft | 2 kts | 105° |
| 2026-05-08 05:44 | 28.55788 | 77.08275 | 773 ft | 2 kts | 105° |
| 2026-05-08 05:44 | 28.55793 | 77.08256 | 773 ft | 2 kts | 105° |
| 2026-05-08 05:44 | 28.55797 | 77.08238 | 773 ft | 2 kts | 105° |
| 2026-05-08 05:45 | 28.55802 | 77.08220 | 773 ft | 3 kts | 96° |
| 2026-05-08 05:45 | 28.55800 | 77.08200 | 773 ft | 3 kts | 59° |
| 2026-05-08 05:45 | 28.55789 | 77.08185 | 773 ft | 2 kts | 22° |
| 2026-05-08 05:45 | 28.55777 | 77.08180 | 773 ft | 2 kts | 21° |
| 2026-05-08 05:46 | 28.55772 | 77.08178 | 773 ft | 1 kts | 21° |
| 2026-05-08 05:46 | 28.55776 | 77.08177 | 773 ft | 2 kts | 0° |
| 2026-05-08 05:46 | 28.55805 | 77.08177 | 773 ft | 0 kts | 2° |
| 2026-05-08 05:47 | 28.55818 | 77.08176 | 773 ft | 5 kts | 356° |
| 2026-05-08 05:48 | 28.55883 | 77.08145 | 773 ft | 15 kts | 329° |
| 2026-05-08 05:48 | 28.55984 | 77.08077 | 773 ft | 18 kts | 328° |
| 2026-05-08 05:48 | 28.56033 | 77.07957 | 773 ft | 18 kts | 288° |
| 2026-05-08 05:48 | 28.56128 | 77.07919 | 773 ft | 17 kts | 14° |
| 2026-05-08 05:49 | 28.56250 | 77.07954 | 773 ft | 19 kts | 14° |
| 2026-05-08 05:49 | 28.56387 | 77.07994 | 773 ft | 22 kts | 15° |
| 2026-05-08 05:49 | 28.56496 | 77.08098 | 773 ft | 22 kts | 63° |
| 2026-05-08 05:49 | 28.56572 | 77.08256 | 773 ft | 24 kts | 62° |
| 2026-05-08 05:50 | 28.56657 | 77.08429 | 772 ft | 26 kts | 63° |
| 2026-05-08 05:50 | 28.56781 | 77.08585 | 772 ft | 27 kts | 34° |
| 2026-05-08 05:50 | 28.56890 | 77.08693 | 773 ft | 15 kts | 43° |
| 2026-05-08 05:50 | 28.56974 | 77.08779 | 773 ft | 17 kts | 38° |
| 2026-05-08 05:51 | 28.57050 | 77.08877 | 774 ft | 12 kts | 69° |
| 2026-05-08 05:51 | 28.57050 | 77.08959 | 774 ft | 1 kts | 92° |
| 2026-05-08 05:51 | 28.57048 | 77.08986 | 774 ft | 15 kts | 95° |
| 2026-05-08 05:51 | 28.57038 | 77.09390 | 775 ft | 84 kts | 91° |
| 2026-05-08 05:52 | 28.57021 | 77.10274 | 774 ft | 138 kts | 90° |
| 2026-05-08 05:52 | 28.57045 | 77.11446 | 1157 ft | 152 kts | 91° |
| 2026-05-08 05:52 | 28.57066 | 77.12680 | 1792 ft | 162 kts | 95° |
| 2026-05-08 05:52 | 28.57199 | 77.14035 | 2177 ft | 185 kts | 73° |
| 2026-05-08 05:53 | 28.57970 | 77.15266 | 2763 ft | 200 kts | 43° |
| 2026-05-08 05:53 | 28.59186 | 77.15946 | 3732 ft | 185 kts | 20° |
| 2026-05-08 05:53 | 28.60346 | 77.16320 | 4808 ft | 167 kts | 22° |
| 2026-05-08 05:53 | 28.61511 | 77.16744 | 5239 ft | 186 kts | 15° |
| 2026-05-08 05:54 | 28.62896 | 77.17042 | 5360 ft | 218 kts | 13° |
| 2026-05-08 05:54 | 28.64453 | 77.17390 | 5733 ft | 238 kts | 9° |
| 2026-05-08 05:54 | 28.66060 | 77.17641 | 6237 ft | 254 kts | 6° |
| 2026-05-08 05:54 | 28.67878 | 77.17893 | 6759 ft | 272 kts | 6° |
| 2026-05-08 05:55 | 28.69804 | 77.18174 | 7368 ft | 284 kts | 6° |
| 2026-05-08 05:55 | 28.71778 | 77.18489 | 8197 ft | 288 kts | 6° |
| 2026-05-08 05:55 | 28.73769 | 77.18833 | 9084 ft | 291 kts | 6° |
| 2026-05-08 05:55 | 28.75778 | 77.19201 | 9908 ft | 294 kts | 6° |
| 2026-05-08 05:56 | 28.77844 | 77.19589 | 10430 ft | 309 kts | 7° |
| 2026-05-08 05:56 | 28.80025 | 77.20003 | 10830 ft | 326 kts | 7° |
| 2026-05-08 05:56 | 28.82307 | 77.20440 | 11333 ft | 337 kts | 7° |
| 2026-05-08 05:56 | 28.84632 | 77.20890 | 12074 ft | 340 kts | 7° |
| 2026-05-08 05:57 | 28.86970 | 77.21345 | 12857 ft | 342 kts | 7° |
| 2026-05-08 05:57 | 28.89325 | 77.21799 | 13636 ft | 345 kts | 7° |
| 2026-05-08 05:57 | 28.91696 | 77.22252 | 14333 ft | 347 kts | 7° |
| 2026-05-08 05:57 | 28.94091 | 77.22707 | 14998 ft | 351 kts | 7° |
| 2026-05-08 05:58 | 28.96509 | 77.23167 | 15649 ft | 354 kts | 7° |
| 2026-05-08 05:58 | 28.98950 | 77.23633 | 16311 ft | 357 kts | 7° |
| 2026-05-08 05:58 | 29.01415 | 77.24106 | 16970 ft | 361 kts | 8° |
| 2026-05-08 05:58 | 29.03906 | 77.24586 | 17621 ft | 365 kts | 8° |
| 2026-05-08 05:59 | 29.06418 | 77.25070 | 18276 ft | 368 kts | 8° |
| 2026-05-08 05:59 | 29.08959 | 77.25557 | 18862 ft | 372 kts | 7° |
| 2026-05-08 05:59 | 29.11521 | 77.26050 | 19475 ft | 375 kts | 7° |
| 2026-05-08 05:59 | 29.14104 | 77.26549 | 20127 ft | 379 kts | 7° |
| 2026-05-08 06:00 | 29.16716 | 77.27053 | 20771 ft | 382 kts | 7° |
| 2026-05-08 06:00 | 29.19352 | 77.27560 | 21398 ft | 386 kts | 7° |
| 2026-05-08 06:00 | 29.22012 | 77.28074 | 22025 ft | 390 kts | 7° |
| 2026-05-08 06:00 | 29.24738 | 77.28602 | 22643 ft | 394 kts | 7° |
| 2026-05-08 06:01 | 29.27452 | 77.29129 | 23250 ft | 398 kts | 7° |
| 2026-05-08 06:01 | 29.30188 | 77.29658 | 23794 ft | 401 kts | 7° |
| 2026-05-08 06:01 | 29.32956 | 77.30191 | 24296 ft | 405 kts | 7° |
| 2026-05-08 06:01 | 29.35741 | 77.30723 | 24807 ft | 408 kts | 7° |
| 2026-05-08 06:02 | 29.38551 | 77.31260 | 25318 ft | 410 kts | 7° |
| 2026-05-08 06:02 | 29.41338 | 77.31794 | 25824 ft | 413 kts | 7° |
| 2026-05-08 06:02 | 29.44217 | 77.32349 | 26327 ft | 416 kts | 7° |
| 2026-05-08 06:02 | 29.47077 | 77.32901 | 26821 ft | 418 kts | 7° |
| 2026-05-08 06:03 | 29.49956 | 77.33459 | 27311 ft | 421 kts | 7° |
| 2026-05-08 06:03 | 29.52855 | 77.34019 | 27801 ft | 424 kts | 7° |
| 2026-05-08 06:03 | 29.55769 | 77.34586 | 28290 ft | 426 kts | 7° |
| 2026-05-08 06:03 | 29.58702 | 77.35158 | 28755 ft | 429 kts | 6° |
| 2026-05-08 06:04 | 29.61655 | 77.35735 | 29224 ft | 431 kts | 6° |
| 2026-05-08 06:04 | 29.64622 | 77.36314 | 29676 ft | 434 kts | 6° |
| 2026-05-08 06:04 | 29.67605 | 77.36889 | 30102 ft | 436 kts | 6° |
| 2026-05-08 06:04 | 29.70608 | 77.37468 | 30451 ft | 439 kts | 6° |
| 2026-05-08 06:05 | 29.73633 | 77.38054 | 30793 ft | 442 kts | 6° |
| 2026-05-08 06:05 | 29.76672 | 77.38647 | 31138 ft | 444 kts | 6° |
| 2026-05-08 06:05 | 29.79728 | 77.39245 | 31466 ft | 446 kts | 6° |
| 2026-05-08 06:05 | 29.82785 | 77.39845 | 31928 ft | 445 kts | 6° |
| 2026-05-08 06:06 | 29.85832 | 77.40443 | 32408 ft | 444 kts | 6° |
| 2026-05-08 06:06 | 29.88873 | 77.41038 | 32880 ft | 443 kts | 6° |
| 2026-05-08 06:06 | 29.91908 | 77.41628 | 33350 ft | 442 kts | 6° |
| 2026-05-08 06:06 | 29.94936 | 77.42216 | 33799 ft | 442 kts | 6° |
| 2026-05-08 06:07 | 29.97961 | 77.42805 | 33937 ft | 438 kts | 6° |
| 2026-05-08 06:07 | 30.00925 | 77.43291 | 33963 ft | 425 kts | 1° |
| 2026-05-08 06:07 | 30.02878 | 77.43454 | 33957 ft | 425 kts | 1° |
| 2026-05-08 06:08 | 30.09770 | 77.44022 | 33961 ft | 425 kts | 1° |
| 2026-05-08 06:08 | 30.14670 | 77.44430 | 33963 ft | 425 kts | 1° |
| 2026-05-08 06:09 | 30.20564 | 77.44915 | 33969 ft | 425 kts | 1° |
| 2026-05-08 06:09 | 30.26459 | 77.45407 | 33974 ft | 424 kts | 1° |
| 2026-05-08 06:10 | 30.32342 | 77.45911 | 33983 ft | 424 kts | 1° |
| 2026-05-08 06:10 | 30.38228 | 77.46408 | 33988 ft | 424 kts | 1° |
| 2026-05-08 06:11 | 30.44113 | 77.46904 | 34003 ft | 424 kts | 1° |
| 2026-05-08 06:11 | 30.50001 | 77.47398 | 34022 ft | 424 kts | 1° |
| 2026-05-08 06:12 | 30.55888 | 77.47899 | 34027 ft | 424 kts | 1° |
| 2026-05-08 06:12 | 30.61775 | 77.48396 | 34038 ft | 424 kts | 1° |
| 2026-05-08 06:13 | 30.67658 | 77.48884 | 34045 ft | 424 kts | 1° |
| 2026-05-08 06:13 | 30.73544 | 77.49388 | 34051 ft | 424 kts | 1° |
| 2026-05-08 06:14 | 30.79435 | 77.49889 | 34055 ft | 424 kts | 1° |
| 2026-05-08 06:14 | 30.85329 | 77.50396 | 34054 ft | 425 kts | 1° |
| 2026-05-08 06:15 | 30.91228 | 77.50901 | 34063 ft | 425 kts | 1° |
| 2026-05-08 06:15 | 30.97127 | 77.51398 | 34070 ft | 425 kts | 1° |
| 2026-05-08 06:16 | 31.03033 | 77.51895 | 34059 ft | 425 kts | 1° |
| 2026-05-08 06:16 | 31.08937 | 77.52399 | 34060 ft | 426 kts | 2° |
| 2026-05-08 06:17 | 31.17806 | 77.53161 | 34063 ft | 426 kts | 2° |
| 2026-05-08 06:17 | 31.23727 | 77.53653 | 34066 ft | 427 kts | 2° |
| 2026-05-08 06:18 | 31.29651 | 77.54125 | 34085 ft | 427 kts | 2° |
| 2026-05-08 06:18 | 31.35575 | 77.54605 | 34090 ft | 426 kts | 2° |
| 2026-05-08 06:19 | 31.41496 | 77.55095 | 34090 ft | 426 kts | 2° |
| 2026-05-08 06:19 | 31.47416 | 77.55582 | 34111 ft | 425 kts | 2° |
| 2026-05-08 06:20 | 31.53322 | 77.56061 | 34109 ft | 426 kts | 2° |
| 2026-05-08 06:20 | 31.59233 | 77.56548 | 34123 ft | 425 kts | 2° |
| 2026-05-08 06:21 | 31.65134 | 77.57040 | 34140 ft | 426 kts | 2° |
| 2026-05-08 06:21 | 31.71045 | 77.57534 | 34165 ft | 426 kts | 2° |
| 2026-05-08 06:22 | 31.76956 | 77.58020 | 34175 ft | 426 kts | 2° |
| 2026-05-08 06:22 | 31.82865 | 77.58501 | 34191 ft | 425 kts | 2° |
| 2026-05-08 06:23 | 31.88764 | 77.58986 | 34203 ft | 425 kts | 2° |
| 2026-05-08 06:23 | 31.94667 | 77.59481 | 34213 ft | 425 kts | 2° |
| 2026-05-08 06:24 | 32.00539 | 77.59977 | 34214 ft | 415 kts | 2° |
| 2026-05-08 06:24 | 32.03368 | 77.60213 | 34226 ft | 400 kts | 2° |
| 2026-05-08 06:24 | 32.06097 | 77.60439 | 34227 ft | 386 kts | 2° |
| 2026-05-08 06:25 | 32.08726 | 77.60658 | 34233 ft | 373 kts | 2° |
| 2026-05-08 06:25 | 32.11272 | 77.60871 | 34234 ft | 360 kts | 2° |
| 2026-05-08 06:25 | 32.16167 | 77.61276 | 34242 ft | 352 kts | 2° |
| 2026-05-08 06:26 | 32.21060 | 77.61685 | 34247 ft | 352 kts | 2° |
| 2026-05-08 06:26 | 32.25946 | 77.62088 | 34250 ft | 352 kts | 2° |
| 2026-05-08 06:27 | 32.30837 | 77.62492 | 34260 ft | 352 kts | 2° |
| 2026-05-08 06:27 | 32.35722 | 77.62905 | 34262 ft | 352 kts | 2° |
| 2026-05-08 06:28 | 32.40554 | 77.63822 | 34269 ft | 354 kts | 16° |
| 2026-05-08 06:28 | 32.45190 | 77.65792 | 34268 ft | 354 kts | 18° |
| 2026-05-08 06:29 | 32.49820 | 77.67786 | 34269 ft | 354 kts | 18° |
| 2026-05-08 06:29 | 32.54450 | 77.69776 | 34266 ft | 354 kts | 18° |
| 2026-05-08 06:30 | 32.59069 | 77.71766 | 34266 ft | 353 kts | 18° |
| 2026-05-08 06:30 | 32.63689 | 77.73754 | 34264 ft | 353 kts | 18° |
| 2026-05-08 06:31 | 32.68304 | 77.75744 | 34263 ft | 353 kts | 18° |
| 2026-05-08 06:31 | 32.72915 | 77.77741 | 34264 ft | 353 kts | 18° |
| 2026-05-08 06:32 | 32.77524 | 77.79737 | 34260 ft | 352 kts | 18° |
| 2026-05-08 06:32 | 32.82130 | 77.81733 | 34260 ft | 352 kts | 18° |
| 2026-05-08 06:33 | 32.86761 | 77.83739 | 34260 ft | 352 kts | 18° |
| 2026-05-08 06:33 | 32.91361 | 77.85737 | 34252 ft | 352 kts | 18° |
| 2026-05-08 06:34 | 32.95961 | 77.87740 | 34245 ft | 352 kts | 18° |
| 2026-05-08 06:34 | 33.00558 | 77.89740 | 34245 ft | 352 kts | 19° |
| 2026-05-08 06:35 | 33.05151 | 77.91743 | 34246 ft | 352 kts | 18° |
| 2026-05-08 06:35 | 33.09750 | 77.93741 | 34245 ft | 352 kts | 18° |
| 2026-05-08 06:36 | 33.14343 | 77.95740 | 34242 ft | 351 kts | 19° |
| 2026-05-08 06:36 | 33.18935 | 77.97747 | 33966 ft | 348 kts | 19° |
| 2026-05-08 06:37 | 33.21203 | 77.98742 | 33836 ft | 348 kts | 19° |
| 2026-05-08 06:37 | 33.23473 | 77.99738 | 33699 ft | 347 kts | 19° |
| 2026-05-08 06:37 | 33.25735 | 78.00733 | 33567 ft | 346 kts | 19° |
| 2026-05-08 06:37 | 33.28037 | 78.01562 | 33376 ft | 344 kts | 10° |
| 2026-05-08 06:38 | 33.30404 | 78.01924 | 33111 ft | 342 kts | 1° |
| 2026-05-08 06:38 | 33.32798 | 78.01842 | 32400 ft | 351 kts | 352° |
| 2026-05-08 06:38 | 33.35234 | 78.01253 | 31514 ft | 364 kts | 342° |
| 2026-05-08 06:38 | 33.37602 | 78.00139 | 31025 ft | 367 kts | 335° |
| 2026-05-08 06:39 | 33.39928 | 77.98872 | 30588 ft | 367 kts | 336° |
| 2026-05-08 06:39 | 33.42267 | 77.97623 | 30132 ft | 368 kts | 336° |
| 2026-05-08 06:39 | 33.44605 | 77.96384 | 29677 ft | 367 kts | 336° |
| 2026-05-08 06:39 | 33.46937 | 77.95147 | 29258 ft | 366 kts | 336° |
| 2026-05-08 06:40 | 33.49248 | 77.93916 | 28940 ft | 360 kts | 336° |
| 2026-05-08 06:40 | 33.51540 | 77.92686 | 28436 ft | 362 kts | 336° |
| 2026-05-08 06:40 | 33.53829 | 77.91452 | 28021 ft | 360 kts | 336° |
| 2026-05-08 06:40 | 33.56110 | 77.90222 | 27632 ft | 358 kts | 336° |
| 2026-05-08 06:41 | 33.58376 | 77.89005 | 27240 ft | 356 kts | 336° |
| 2026-05-08 06:41 | 33.60625 | 77.87797 | 26863 ft | 353 kts | 336° |
| 2026-05-08 06:41 | 33.62860 | 77.86597 | 26484 ft | 351 kts | 335° |
| 2026-05-08 06:41 | 33.65077 | 77.85403 | 26109 ft | 348 kts | 335° |
| 2026-05-08 06:42 | 33.67280 | 77.84214 | 25729 ft | 346 kts | 335° |
| 2026-05-08 06:42 | 33.69476 | 77.83027 | 25332 ft | 346 kts | 335° |
| 2026-05-08 06:42 | 33.71664 | 77.81844 | 24915 ft | 345 kts | 335° |
| 2026-05-08 06:42 | 33.73894 | 77.80637 | 24098 ft | 358 kts | 335° |
| 2026-05-08 06:43 | 33.76179 | 77.79397 | 23527 ft | 361 kts | 335° |
| 2026-05-08 06:43 | 33.78457 | 77.78164 | 23088 ft | 358 kts | 335° |
| 2026-05-08 06:43 | 33.80714 | 77.76945 | 22645 ft | 355 kts | 335° |
| 2026-05-08 06:43 | 33.82957 | 77.75731 | 22220 ft | 352 kts | 335° |
| 2026-05-08 06:44 | 33.85185 | 77.74526 | 21801 ft | 350 kts | 335° |
| 2026-05-08 06:44 | 33.87399 | 77.73325 | 21385 ft | 348 kts | 335° |
| 2026-05-08 06:44 | 33.89627 | 77.72115 | 20668 ft | 356 kts | 336° |
| 2026-05-08 06:44 | 33.91908 | 77.70875 | 19898 ft | 364 kts | 336° |
| 2026-05-08 06:45 | 33.94242 | 77.69605 | 19218 ft | 370 kts | 336° |
| 2026-05-08 06:45 | 33.96564 | 77.68339 | 18975 ft | 361 kts | 336° |
| 2026-05-08 06:45 | 33.98812 | 77.67108 | 18884 ft | 348 kts | 334° |
| 2026-05-08 06:45 | 34.00817 | 77.65605 | 18926 ft | 332 kts | 322° |
| 2026-05-08 06:46 | 34.02584 | 77.63820 | 18409 ft | 335 kts | 320° |
| 2026-05-08 06:46 | 34.04377 | 77.61970 | 17643 ft | 344 kts | 320° |
| 2026-05-08 06:46 | 34.06231 | 77.60091 | 16854 ft | 352 kts | 324° |
| 2026-05-08 06:46 | 34.07601 | 77.59073 | 16369 ft | 347 kts | 335° |
| 2026-05-08 06:47 | 34.09801 | 77.58137 | 16111 ft | 324 kts | 348° |
| 2026-05-08 06:47 | 34.11955 | 77.57830 | 15985 ft | 300 kts | 0° |
| 2026-05-08 06:47 | 34.13945 | 77.57767 | 16014 ft | 273 kts | 347° |
| 2026-05-08 06:47 | 34.15521 | 77.56756 | 16043 ft | 248 kts | 312° |
| 2026-05-08 06:48 | 34.16229 | 77.55013 | 16032 ft | 218 kts | 283° |
| 2026-05-08 06:48 | 34.16457 | 77.53353 | 16023 ft | 186 kts | 280° |
| 2026-05-08 06:48 | 34.16640 | 77.51821 | 16018 ft | 185 kts | 278° |
| 2026-05-08 06:48 | 34.16735 | 77.50278 | 16009 ft | 184 kts | 272° |
| 2026-05-08 06:49 | 34.16643 | 77.48711 | 15574 ft | 193 kts | 257° |
| 2026-05-08 06:49 | 34.15957 | 77.47305 | 14890 ft | 202 kts | 219° |
| 2026-05-08 06:49 | 34.14628 | 77.46836 | 14279 ft | 203 kts | 170° |
| 2026-05-08 06:49 | 34.13471 | 77.47587 | 13906 ft | 186 kts | 133° |
| 2026-05-08 06:50 | 34.12860 | 77.48991 | 12587 ft | 201 kts | 106° |
| 2026-05-08 06:50 | 34.12576 | 77.50599 | 11599 ft | 193 kts | 88° |
| 2026-05-08 06:50 | 34.12835 | 77.52144 | 10858 ft | 185 kts | 67° |
| 2026-05-08 06:50 | 34.13276 | 77.53481 | 10627 ft | 160 kts | 66° |
| 2026-05-08 06:51 | 34.13684 | 77.54793 | 10799 ft | 171 kts | 71° |
| 2026-05-08 06:51 | 34.13998 | 77.55737 | 10824 ft | 47 kts | 54° |